Leming, Texas
Current Conditions -  °F | °C
As of 12:35 PM on Sunday 21 Dec 2014 (Local Time) from KPEZ Reporting Station
Haze Haze  
Wind Chill: 54°   Ceiling: 600
Heat Index: 54°   Visibility: 2mi
Dew Point: 52°   Wind: 0mph
Humidity: 94%   Direction: NA
Pressure: 30.06"   Gusts: NA
Location:  29.07°N, 98.48°W
Report Text: KPEZ 211835Z AUTO 00000KT 2SM BR BKN006 OVC010 12/11 A3006 RMK AO2 T01200111
Loading
Personal Weather Stations






























Interactive Weather Map New forecast layout! Learn more

10-Day Weather Forecast

Advertisements
Track Severe Weather on mobile